Franklin, Illinois
Current Conditions -  °F | °C
As of 8:35 PM on Wednesday 22 Oct 2014 (Local Time) from KIJX Reporting Station
Clear Clear  
Wind Chill: 44°   Ceiling: Unl
Heat Index: 47°   Visibility: 10mi
Dew Point: 38°   Wind: 7mph
Humidity: 71%   Direction: 120°ESE
Pressure: 30.23"   Gusts: NA
Location:  39.62°N, 90.04°W
Report Text: KIJX 230135Z AUTO 12006KT 10SM CLR 09/04 A3023 RMK AO2 T00850036
Loading
Personal Weather Stations






























Interactive Weather Map New forecast layout! Learn more

10-Day Weather Forecast

Advertisements
Track Severe Weather on mobile